sensor_id;sensor_type;location;lat;lon;timestamp;P1;durP1;ratioP1;P2;durP2;ratioP2
16139;SDS011;8175;49.326;12.690;2022-09-01T00:01:13;18.50;;;14.00;;
16139;SDS011;8175;49.326;12.690;2022-09-01T00:03:44;20.30;;;14.17;;
16139;SDS011;8175;49.326;12.690;2022-09-01T00:06:12;18.97;;;13.63;;
16139;SDS011;8175;49.326;12.690;2022-09-01T00:08:39;18.27;;;13.73;;
16139;SDS011;8175;49.326;12.690;2022-09-01T00:11:05;18.87;;;13.27;;
16139;SDS011;8175;49.326;12.690;2022-09-01T00:13:30;23.27;;;14.37;;
16139;SDS011;8175;49.326;12.690;2022-09-01T00:15:58;20.63;;;14.10;;
16139;SDS011;8175;49.326;12.690;2022-09-01T00:18:28;17.80;;;14.23;;
16139;SDS011;8175;49.326;12.690;2022-09-01T00:20:54;17.80;;;14.13;;
16139;SDS011;8175;49.326;12.690;2022-09-01T00:23:23;23.20;;;15.93;;
16139;SDS011;8175;49.326;12.690;2022-09-01T00:25:52;21.60;;;13.57;;
16139;SDS011;8175;49.326;12.690;2022-09-01T00:28:18;21.67;;;14.87;;
16139;SDS011;8175;49.326;12.690;2022-09-01T00:30:44;22.10;;;14.57;;
16139;SDS011;8175;49.326;12.690;2022-09-01T00:33:10;24.30;;;16.53;;
16139;SDS011;8175;49.326;12.690;2022-09-01T00:35:35;22.47;;;16.13;;
16139;SDS011;8175;49.326;12.690;2022-09-01T00:38:01;24.60;;;15.40;;
16139;SDS011;8175;49.326;12.690;2022-09-01T00:40:27;21.70;;;16.47;;
16139;SDS011;8175;49.326;12.690;2022-09-01T00:42:53;22.73;;;15.90;;
16139;SDS011;8175;49.326;12.690;2022-09-01T00:45:20;23.73;;;15.73;;
16139;SDS011;8175;49.326;12.690;2022-09-01T00:47:46;17.77;;;14.53;;
16139;SDS011;8175;49.326;12.690;2022-09-01T00:50:13;21.23;;;15.97;;
16139;SDS011;8175;49.326;12.690;2022-09-01T00:52:45;18.20;;;14.70;;
16139;SDS011;8175;49.326;12.690;2022-09-01T00:55:21;22.40;;;15.80;;
16139;SDS011;8175;49.326;12.690;2022-09-01T00:57:50;22.47;;;14.53;;
16139;SDS011;8175;49.326;12.690;2022-09-01T01:00:21;24.93;;;15.43;;
16139;SDS011;8175;49.326;12.690;2022-09-01T01:02:50;22.20;;;14.83;;
16139;SDS011;8175;49.326;12.690;2022-09-01T01:05:20;20.60;;;15.43;;
16139;SDS011;8175;49.326;12.690;2022-09-01T01:07:47;22.20;;;16.00;;
16139;SDS011;8175;49.326;12.690;2022-09-01T01:10:14;19.03;;;15.17;;
16139;SDS011;8175;49.326;12.690;2022-09-01T01:12:41;22.37;;;15.00;;
16139;SDS011;8175;49.326;12.690;2022-09-01T01:15:09;22.20;;;16.17;;
16139;SDS011;8175;49.326;12.690;2022-09-01T01:17:36;18.53;;;14.97;;
16139;SDS011;8175;49.326;12.690;2022-09-01T01:20:02;21.73;;;16.43;;
16139;SDS011;8175;49.326;12.690;2022-09-01T01:23:04;21.90;;;15.20;;
16139;SDS011;8175;49.326;12.690;2022-09-01T01:26:01;20.40;;;14.47;;
16139;SDS011;8175;49.326;12.690;2022-09-01T01:28:29;18.50;;;13.93;;
16139;SDS011;8175;49.326;12.690;2022-09-01T01:33:28;19.23;;;13.30;;
16139;SDS011;8175;49.326;12.690;2022-09-01T01:36:07;22.23;;;16.20;;
16139;SDS011;8175;49.326;12.690;2022-09-01T01:38:40;19.37;;;14.47;;
16139;SDS011;8175;49.326;12.690;2022-09-01T01:41:11;21.90;;;15.80;;
16139;SDS011;8175;49.326;12.690;2022-09-01T01:43:38;25.43;;;16.43;;
16139;SDS011;8175;49.326;12.690;2022-09-01T01:46:05;21.63;;;14.40;;
16139;SDS011;8175;49.326;12.690;2022-09-01T01:48:33;23.13;;;15.70;;
16139;SDS011;8175;49.326;12.690;2022-09-01T01:51:02;24.97;;;15.93;;
16139;SDS011;8175;49.326;12.690;2022-09-01T01:53:30;30.33;;;17.80;;
16139;SDS011;8175;49.326;12.690;2022-09-01T01:55:56;27.47;;;15.20;;
16139;SDS011;8175;49.326;12.690;2022-09-01T01:58:24;24.07;;;15.90;;
16139;SDS011;8175;49.326;12.690;2022-09-01T02:00:53;25.83;;;16.50;;
16139;SDS011;8175;49.326;12.690;2022-09-01T02:03:20;22.07;;;16.60;;
16139;SDS011;8175;49.326;12.690;2022-09-01T02:05:49;26.70;;;16.67;;
16139;SDS011;8175;49.326;12.690;2022-09-01T02:08:16;29.43;;;17.40;;
16139;SDS011;8175;49.326;12.690;2022-09-01T02:10:46;26.50;;;16.77;;
16139;SDS011;8175;49.326;12.690;2022-09-01T02:13:16;32.30;;;17.90;;
16139;SDS011;8175;49.326;12.690;2022-09-01T02:15:49;29.87;;;17.37;;
16139;SDS011;8175;49.326;12.690;2022-09-01T02:18:31;32.00;;;17.97;;
16139;SDS011;8175;49.326;12.690;2022-09-01T02:21:00;31.40;;;17.17;;
16139;SDS011;8175;49.326;12.690;2022-09-01T02:23:38;30.90;;;17.93;;
16139;SDS011;8175;49.326;12.690;2022-09-01T02:26:05;29.87;;;18.27;;
16139;SDS011;8175;49.326;12.690;2022-09-01T02:28:33;33.03;;;18.63;;
16139;SDS011;8175;49.326;12.690;2022-09-01T02:31:04;33.10;;;19.43;;
16139;SDS011;8175;49.326;12.690;2022-09-01T02:33:32;29.13;;;18.30;;
16139;SDS011;8175;49.326;12.690;2022-09-01T02:36:03;28.33;;;18.43;;
16139;SDS011;8175;49.326;12.690;2022-09-01T02:38:32;31.97;;;17.90;;
16139;SDS011;8175;49.326;12.690;2022-09-01T02:40:59;37.07;;;20.10;;
16139;SDS011;8175;49.326;12.690;2022-09-01T02:43:26;33.67;;;19.70;;
16139;SDS011;8175;49.326;12.690;2022-09-01T02:45:53;28.97;;;17.53;;
16139;SDS011;8175;49.326;12.690;2022-09-01T02:48:28;35.23;;;19.73;;
16139;SDS011;8175;49.326;12.690;2022-09-01T02:50:57;32.67;;;19.27;;
16139;SDS011;8175;49.326;12.690;2022-09-01T02:53:25;33.47;;;18.97;;
16139;SDS011;8175;49.326;12.690;2022-09-01T02:55:55;28.50;;;16.60;;
16139;SDS011;8175;49.326;12.690;2022-09-01T02:58:23;35.83;;;20.10;;
16139;SDS011;8175;49.326;12.690;2022-09-01T03:00:51;30.27;;;17.93;;
16139;SDS011;8175;49.326;12.690;2022-09-01T03:03:18;31.03;;;19.13;;
16139;SDS011;8175;49.326;12.690;2022-09-01T03:05:45;33.50;;;19.87;;
16139;SDS011;8175;49.326;12.690;2022-09-01T03:08:12;42.67;;;23.63;;
16139;SDS011;8175;49.326;12.690;2022-09-01T03:10:41;38.30;;;22.37;;
16139;SDS011;8175;49.326;12.690;2022-09-01T03:13:13;40.37;;;21.67;;
16139;SDS011;8175;49.326;12.690;2022-09-01T03:15:41;39.83;;;21.80;;
16139;SDS011;8175;49.326;12.690;2022-09-01T03:18:08;44.77;;;24.03;;
16139;SDS011;8175;49.326;12.690;2022-09-01T03:20:36;40.33;;;21.10;;
16139;SDS011;8175;49.326;12.690;2022-09-01T03:23:07;44.30;;;23.23;;
16139;SDS011;8175;49.326;12.690;2022-09-01T03:25:35;43.60;;;22.87;;
16139;SDS011;8175;49.326;12.690;2022-09-01T03:28:01;45.40;;;24.67;;
16139;SDS011;8175;49.326;12.690;2022-09-01T03:30:31;47.13;;;25.23;;
16139;SDS011;8175;49.326;12.690;2022-09-01T03:32:59;51.10;;;24.60;;
16139;SDS011;8175;49.326;12.690;2022-09-01T03:35:26;60.90;;;29.10;;
16139;SDS011;8175;49.326;12.690;2022-09-01T03:37:56;58.37;;;26.70;;
16139;SDS011;8175;49.326;12.690;2022-09-01T03:40:23;58.00;;;27.37;;
16139;SDS011;8175;49.326;12.690;2022-09-01T03:42:51;70.27;;;30.97;;
16139;SDS011;8175;49.326;12.690;2022-09-01T03:45:18;56.00;;;27.47;;
16139;SDS011;8175;49.326;12.690;2022-09-01T03:47:44;61.17;;;23.30;;
16139;SDS011;8175;49.326;12.690;2022-09-01T03:50:12;38.37;;;18.23;;
16139;SDS011;8175;49.326;12.690;2022-09-01T03:52:49;79.93;;;21.97;;
16139;SDS011;8175;49.326;12.690;2022-09-01T03:55:18;53.33;;;22.37;;
16139;SDS011;8175;49.326;12.690;2022-09-01T03:57:50;45.83;;;17.37;;
16139;SDS011;8175;49.326;12.690;2022-09-01T04:00:18;73.50;;;20.73;;
16139;SDS011;8175;49.326;12.690;2022-09-01T04:02:48;47.60;;;19.10;;
16139;SDS011;8175;49.326;12.690;2022-09-01T04:05:18;43.73;;;21.83;;
16139;SDS011;8175;49.326;12.690;2022-09-01T04:07:47;48.13;;;25.83;;
16139;SDS011;8175;49.326;12.690;2022-09-01T04:10:14;63.40;;;23.50;;
16139;SDS011;8175;49.326;12.690;2022-09-01T04:12:41;72.50;;;23.23;;
16139;SDS011;8175;49.326;12.690;2022-09-01T04:15:08;47.73;;;20.67;;
16139;SDS011;8175;49.326;12.690;2022-09-01T04:17:34;42.40;;;20.37;;
16139;SDS011;8175;49.326;12.690;2022-09-01T04:20:19;37.40;;;20.13;;
16139;SDS011;8175;49.326;12.690;2022-09-01T04:22:45;48.00;;;21.03;;
16139;SDS011;8175;49.326;12.690;2022-09-01T04:25:13;36.67;;;19.97;;
16139;SDS011;8175;49.326;12.690;2022-09-01T04:27:40;48.60;;;21.90;;
16139;SDS011;8175;49.326;12.690;2022-09-01T04:30:06;60.07;;;23.50;;
16139;SDS011;8175;49.326;12.690;2022-09-01T04:32:35;63.23;;;23.87;;
16139;SDS011;8175;49.326;12.690;2022-09-01T04:35:02;68.47;;;23.87;;
16139;SDS011;8175;49.326;12.690;2022-09-01T04:37:28;91.83;;;24.47;;
16139;SDS011;8175;49.326;12.690;2022-09-01T04:39:55;62.13;;;22.53;;
16139;SDS011;8175;49.326;12.690;2022-09-01T04:42:22;81.60;;;26.47;;
16139;SDS011;8175;49.326;12.690;2022-09-01T04:44:50;35.47;;;19.53;;
16139;SDS011;8175;49.326;12.690;2022-09-01T04:47:17;40.60;;;21.93;;
16139;SDS011;8175;49.326;12.690;2022-09-01T04:49:44;41.87;;;20.47;;
16139;SDS011;8175;49.326;12.690;2022-09-01T04:52:11;41.60;;;23.17;;
16139;SDS011;8175;49.326;12.690;2022-09-01T04:54:38;45.07;;;24.23;;
16139;SDS011;8175;49.326;12.690;2022-09-01T04:57:03;45.00;;;23.27;;
16139;SDS011;8175;49.326;12.690;2022-09-01T04:59:30;36.40;;;20.13;;
16139;SDS011;8175;49.326;12.690;2022-09-01T05:01:57;49.07;;;24.80;;
16139;SDS011;8175;49.326;12.690;2022-09-01T05:04:25;47.63;;;24.03;;
16139;SDS011;8175;49.326;12.690;2022-09-01T05:06:53;45.40;;;23.00;;
16139;SDS011;8175;49.326;12.690;2022-09-01T05:09:28;51.37;;;25.17;;
16139;SDS011;8175;49.326;12.690;2022-09-01T05:11:56;42.70;;;22.97;;
16139;SDS011;8175;49.326;12.690;2022-09-01T05:14:25;48.97;;;24.63;;
16139;SDS011;8175;49.326;12.690;2022-09-01T05:16:57;49.43;;;24.27;;
16139;SDS011;8175;49.326;12.690;2022-09-01T05:19:24;46.07;;;24.03;;
16139;SDS011;8175;49.326;12.690;2022-09-01T05:21:53;44.17;;;21.97;;
16139;SDS011;8175;49.326;12.690;2022-09-01T05:24:21;42.33;;;23.27;;
16139;SDS011;8175;49.326;12.690;2022-09-01T05:26:54;47.70;;;24.13;;
16139;SDS011;8175;49.326;12.690;2022-09-01T05:29:20;50.00;;;24.70;;
16139;SDS011;8175;49.326;12.690;2022-09-01T05:31:46;44.23;;;24.70;;
16139;SDS011;8175;49.326;12.690;2022-09-01T05:34:13;43.80;;;23.93;;
16139;SDS011;8175;49.326;12.690;2022-09-01T05:36:44;45.33;;;22.83;;
16139;SDS011;8175;49.326;12.690;2022-09-01T05:39:12;42.77;;;22.37;;
16139;SDS011;8175;49.326;12.690;2022-09-01T05:41:39;40.70;;;23.23;;
16139;SDS011;8175;49.326;12.690;2022-09-01T05:44:05;53.27;;;23.97;;
16139;SDS011;8175;49.326;12.690;2022-09-01T05:46:32;52.57;;;25.40;;
16139;SDS011;8175;49.326;12.690;2022-09-01T05:49:00;58.27;;;27.80;;
16139;SDS011;8175;49.326;12.690;2022-09-01T05:51:27;62.37;;;28.87;;
16139;SDS011;8175;49.326;12.690;2022-09-01T05:53:55;71.63;;;31.13;;
16139;SDS011;8175;49.326;12.690;2022-09-01T05:56:23;58.63;;;27.77;;
16139;SDS011;8175;49.326;12.690;2022-09-01T05:58:51;61.23;;;30.13;;
16139;SDS011;8175;49.326;12.690;2022-09-01T06:01:18;53.10;;;30.40;;
16139;SDS011;8175;49.326;12.690;2022-09-01T06:03:49;48.10;;;26.00;;
16139;SDS011;8175;49.326;12.690;2022-09-01T06:06:19;46.70;;;25.40;;
16139;SDS011;8175;49.326;12.690;2022-09-01T06:08:49;56.37;;;27.00;;
16139;SDS011;8175;49.326;12.690;2022-09-01T06:11:16;53.43;;;29.67;;
16139;SDS011;8175;49.326;12.690;2022-09-01T06:13:43;62.10;;;27.90;;
16139;SDS011;8175;49.326;12.690;2022-09-01T06:16:11;56.57;;;28.50;;
16139;SDS011;8175;49.326;12.690;2022-09-01T06:18:40;53.67;;;29.83;;
16139;SDS011;8175;49.326;12.690;2022-09-01T06:21:07;55.00;;;27.60;;
16139;SDS011;8175;49.326;12.690;2022-09-01T06:23:36;49.70;;;28.00;;
16139;SDS011;8175;49.326;12.690;2022-09-01T06:26:02;54.20;;;27.43;;
16139;SDS011;8175;49.326;12.690;2022-09-01T06:28:28;61.17;;;27.87;;
16139;SDS011;8175;49.326;12.690;2022-09-01T06:30:54;43.27;;;27.00;;
16139;SDS011;8175;49.326;12.690;2022-09-01T06:33:21;36.83;;;24.57;;
16139;SDS011;8175;49.326;12.690;2022-09-01T06:35:49;51.73;;;26.30;;
16139;SDS011;8175;49.326;12.690;2022-09-01T06:38:16;41.87;;;24.03;;
16139;SDS011;8175;49.326;12.690;2022-09-01T06:40:43;39.63;;;23.83;;
16139;SDS011;8175;49.326;12.690;2022-09-01T06:43:10;45.17;;;24.83;;
16139;SDS011;8175;49.326;12.690;2022-09-01T06:45:41;38.87;;;23.63;;
16139;SDS011;8175;49.326;12.690;2022-09-01T06:48:13;40.10;;;23.77;;
16139;SDS011;8175;49.326;12.690;2022-09-01T06:50:40;36.43;;;21.33;;
16139;SDS011;8175;49.326;12.690;2022-09-01T06:53:06;36.70;;;21.90;;
16139;SDS011;8175;49.326;12.690;2022-09-01T06:55:35;34.10;;;20.63;;
16139;SDS011;8175;49.326;12.690;2022-09-01T06:58:03;25.43;;;19.43;;
16139;SDS011;8175;49.326;12.690;2022-09-01T07:00:30;29.23;;;19.73;;
16139;SDS011;8175;49.326;12.690;2022-09-01T07:02:56;27.43;;;19.20;;
16139;SDS011;8175;49.326;12.690;2022-09-01T07:05:22;24.97;;;18.03;;
16139;SDS011;8175;49.326;12.690;2022-09-01T07:07:50;27.37;;;19.47;;
16139;SDS011;8175;49.326;12.690;2022-09-01T07:10:22;26.87;;;21.17;;
16139;SDS011;8175;49.326;12.690;2022-09-01T07:12:52;22.43;;;17.33;;
16139;SDS011;8175;49.326;12.690;2022-09-01T07:15:20;19.20;;;16.67;;
16139;SDS011;8175;49.326;12.690;2022-09-01T07:17:48;15.83;;;14.17;;
16139;SDS011;8175;49.326;12.690;2022-09-01T07:20:17;14.53;;;13.10;;
16139;SDS011;8175;49.326;12.690;2022-09-01T07:22:54;16.17;;;14.43;;
16139;SDS011;8175;49.326;12.690;2022-09-01T07:25:21;13.73;;;12.33;;
16139;SDS011;8175;49.326;12.690;2022-09-01T07:27:47;12.07;;;10.73;;
16139;SDS011;8175;49.326;12.690;2022-09-01T07:30:14;12.10;;;10.83;;
16139;SDS011;8175;49.326;12.690;2022-09-01T07:32:42;11.33;;;10.17;;
16139;SDS011;8175;49.326;12.690;2022-09-01T07:35:08;10.70;;;9.60;;
16139;SDS011;8175;49.326;12.690;2022-09-01T07:37:34;10.93;;;9.83;;
16139;SDS011;8175;49.326;12.690;2022-09-01T07:40:07;11.20;;;10.10;;
16139;SDS011;8175;49.326;12.690;2022-09-01T07:42:35;10.53;;;8.63;;
16139;SDS011;8175;49.326;12.690;2022-09-01T07:45:04;10.53;;;9.53;;
16139;SDS011;8175;49.326;12.690;2022-09-01T07:47:32;9.57;;;8.53;;
16139;SDS011;8175;49.326;12.690;2022-09-01T07:50:01;10.80;;;9.70;;
16139;SDS011;8175;49.326;12.690;2022-09-01T07:52:32;7.80;;;7.10;;
16139;SDS011;8175;49.326;12.690;2022-09-01T07:55:01;6.83;;;6.17;;
16139;SDS011;8175;49.326;12.690;2022-09-01T07:57:27;6.30;;;5.80;;
16139;SDS011;8175;49.326;12.690;2022-09-01T07:59:53;6.83;;;5.10;;
16139;SDS011;8175;49.326;12.690;2022-09-01T08:02:20;4.90;;;4.50;;
16139;SDS011;8175;49.326;12.690;2022-09-01T08:04:45;5.17;;;4.57;;
16139;SDS011;8175;49.326;12.690;2022-09-01T08:07:12;5.60;;;5.10;;
16139;SDS011;8175;49.326;12.690;2022-09-01T08:09:38;5.40;;;5.00;;
16139;SDS011;8175;49.326;12.690;2022-09-01T08:12:05;5.40;;;4.90;;
16139;SDS011;8175;49.326;12.690;2022-09-01T08:14:31;4.90;;;4.50;;
16139;SDS011;8175;49.326;12.690;2022-09-01T08:16:57;5.40;;;4.55;;
16139;SDS011;8175;49.326;12.690;2022-09-01T08:19:23;4.82;;;4.43;;
16139;SDS011;8175;49.326;12.690;2022-09-01T08:21:48;4.60;;;4.20;;
16139;SDS011;8175;49.326;12.690;2022-09-01T08:24:14;4.82;;;4.38;;
16139;SDS011;8175;49.326;12.690;2022-09-01T08:26:40;5.60;;;5.10;;
16139;SDS011;8175;49.326;12.690;2022-09-01T08:29:05;4.90;;;4.60;;
16139;SDS011;8175;49.326;12.690;2022-09-01T08:31:31;4.13;;;3.83;;
16139;SDS011;8175;49.326;12.690;2022-09-01T08:33:58;6.13;;;5.07;;
16139;SDS011;8175;49.326;12.690;2022-09-01T08:36:24;5.07;;;4.68;;
16139;SDS011;8175;49.326;12.690;2022-09-01T08:38:50;5.10;;;4.70;;
16139;SDS011;8175;49.326;12.690;2022-09-01T08:41:23;4.50;;;4.10;;
16139;SDS011;8175;49.326;12.690;2022-09-01T08:44:03;5.38;;;4.50;;
16139;SDS011;8175;49.326;12.690;2022-09-01T08:46:46;4.85;;;4.45;;
16139;SDS011;8175;49.326;12.690;2022-09-01T08:49:20;5.32;;;4.82;;
16139;SDS011;8175;49.326;12.690;2022-09-01T08:54:48;4.82;;;4.45;;
16139;SDS011;8175;49.326;12.690;2022-09-01T08:57:25;5.72;;;5.15;;
16139;SDS011;8175;49.326;12.690;2022-09-01T09:00:05;5.25;;;4.75;;
16139;SDS011;8175;49.326;12.690;2022-09-01T09:02:51;5.25;;;4.45;;
16139;SDS011;8175;49.326;12.690;2022-09-01T09:10:42;4.88;;;4.38;;
16139;SDS011;8175;49.326;12.690;2022-09-01T09:16:05;3.85;;;3.55;;
16139;SDS011;8175;49.326;12.690;2022-09-01T09:21:17;4.00;;;3.70;;
16139;SDS011;8175;49.326;12.690;2022-09-01T09:23:47;4.10;;;3.75;;
16139;SDS011;8175;49.326;12.690;2022-09-01T09:26:20;4.20;;;3.38;;
16139;SDS011;8175;49.326;12.690;2022-09-01T09:28:47;4.00;;;3.70;;
16139;SDS011;8175;49.326;12.690;2022-09-01T09:31:23;3.47;;;3.28;;
16139;SDS011;8175;49.326;12.690;2022-09-01T09:34:15;3.90;;;3.60;;
16139;SDS011;8175;49.326;12.690;2022-09-01T09:36:54;3.67;;;3.38;;
16139;SDS011;8175;49.326;12.690;2022-09-01T09:39:19;4.10;;;3.35;;
16139;SDS011;8175;49.326;12.690;2022-09-01T09:42:02;4.10;;;3.70;;
16139;SDS011;8175;49.326;12.690;2022-09-01T09:44:39;4.10;;;3.75;;
16139;SDS011;8175;49.326;12.690;2022-09-01T09:52:36;3.08;;;2.47;;
16139;SDS011;8175;49.326;12.690;2022-09-01T09:57:29;2.67;;;2.47;;
16139;SDS011;8175;49.326;12.690;2022-09-01T10:03:03;2.50;;;2.30;;
16139;SDS011;8175;49.326;12.690;2022-09-01T10:08:07;3.08;;;2.78;;
16139;SDS011;8175;49.326;12.690;2022-09-01T10:10:37;3.05;;;2.70;;
16139;SDS011;8175;49.326;12.690;2022-09-01T10:13:12;3.28;;;2.50;;
16139;SDS011;8175;49.326;12.690;2022-09-01T10:15:40;2.80;;;2.60;;
16139;SDS011;8175;49.326;12.690;2022-09-01T10:18:14;3.22;;;2.78;;
16139;SDS011;8175;49.326;12.690;2022-09-01T10:20:47;2.60;;;2.40;;
16139;SDS011;8175;49.326;12.690;2022-09-01T10:23:20;3.10;;;2.72;;
16139;SDS011;8175;49.326;12.690;2022-09-01T10:25:45;2.85;;;2.63;;
16139;SDS011;8175;49.326;12.690;2022-09-01T10:28:15;2.40;;;2.20;;
16139;SDS011;8175;49.326;12.690;2022-09-01T10:30:48;2.47;;;2.20;;
16139;SDS011;8175;49.326;12.690;2022-09-01T10:33:16;3.08;;;2.72;;
16139;SDS011;8175;49.326;12.690;2022-09-01T10:35:44;1.92;;;1.83;;
16139;SDS011;8175;49.326;12.690;2022-09-01T10:38:16;2.10;;;1.90;;
16139;SDS011;8175;49.326;12.690;2022-09-01T10:40:46;3.08;;;2.30;;
16139;SDS011;8175;49.326;12.690;2022-09-01T10:43:22;2.97;;;2.63;;
16139;SDS011;8175;49.326;12.690;2022-09-01T10:45:49;2.65;;;2.40;;
16139;SDS011;8175;49.326;12.690;2022-09-01T10:50:44;2.72;;;2.47;;
16139;SDS011;8175;49.326;12.690;2022-09-01T10:56:07;3.22;;;2.08;;
16139;SDS011;8175;49.326;12.690;2022-09-01T11:04:06;3.83;;;2.30;;
16139;SDS011;8175;49.326;12.690;2022-09-01T11:12:26;2.80;;;2.30;;
16139;SDS011;8175;49.326;12.690;2022-09-01T11:15:06;2.00;;;1.90;;
16139;SDS011;8175;49.326;12.690;2022-09-01T11:17:59;2.50;;;2.28;;
16139;SDS011;8175;49.326;12.690;2022-09-01T11:25:51;3.17;;;1.95;;
16139;SDS011;8175;49.326;12.690;2022-09-01T11:30:55;2.60;;;2.00;;
16139;SDS011;8175;49.326;12.690;2022-09-01T11:36:15;1.75;;;1.60;;
16139;SDS011;8175;49.326;12.690;2022-09-01T11:39:03;1.85;;;1.42;;
16139;SDS011;8175;49.326;12.690;2022-09-01T11:42:24;2.92;;;1.70;;
16139;SDS011;8175;49.326;12.690;2022-09-01T11:44:36;1.95;;;1.80;;
16139;SDS011;8175;49.326;12.690;2022-09-01T11:47:24;2.25;;;2.03;;
16139;SDS011;8175;49.326;12.690;2022-09-01T11:50:03;2.72;;;1.92;;
16139;SDS011;8175;49.326;12.690;2022-09-01T11:52:33;1.75;;;1.65;;
16139;SDS011;8175;49.326;12.690;2022-09-01T11:55:02;2.10;;;1.85;;
16139;SDS011;8175;49.326;12.690;2022-09-01T11:57:34;1.83;;;1.73;;
16139;SDS011;8175;49.326;12.690;2022-09-01T12:00:06;2.17;;;1.90;;
16139;SDS011;8175;49.326;12.690;2022-09-01T12:02:47;1.90;;;1.80;;
16139;SDS011;8175;49.326;12.690;2022-09-01T12:05:31;2.88;;;1.90;;
16139;SDS011;8175;49.326;12.690;2022-09-01T12:08:13;2.58;;;1.60;;
16139;SDS011;8175;49.326;12.690;2022-09-01T12:10:42;1.50;;;1.40;;
16139;SDS011;8175;49.326;12.690;2022-09-01T12:13:11;2.25;;;1.70;;
16139;SDS011;8175;49.326;12.690;2022-09-01T12:15:41;1.50;;;1.40;;
16139;SDS011;8175;49.326;12.690;2022-09-01T12:18:29;1.50;;;1.30;;
16139;SDS011;8175;49.326;12.690;2022-09-01T12:20:59;1.83;;;1.50;;
16139;SDS011;8175;49.326;12.690;2022-09-01T12:23:28;1.60;;;1.50;;
16139;SDS011;8175;49.326;12.690;2022-09-01T12:25:57;2.80;;;1.85;;
16139;SDS011;8175;49.326;12.690;2022-09-01T12:28:31;2.22;;;1.35;;
16139;SDS011;8175;49.326;12.690;2022-09-01T12:30:58;1.50;;;1.30;;
16139;SDS011;8175;49.326;12.690;2022-09-01T12:33:26;1.60;;;1.50;;
16139;SDS011;8175;49.326;12.690;2022-09-01T12:36:12;1.60;;;1.50;;
16139;SDS011;8175;49.326;12.690;2022-09-01T12:38:37;1.90;;;1.48;;
16139;SDS011;8175;49.326;12.690;2022-09-01T12:41:03;2.13;;;1.40;;
16139;SDS011;8175;49.326;12.690;2022-09-01T12:43:49;2.08;;;1.38;;
16139;SDS011;8175;49.326;12.690;2022-09-01T12:46:38;2.42;;;1.50;;
16139;SDS011;8175;49.326;12.690;2022-09-01T12:49:24;1.65;;;1.23;;
16139;SDS011;8175;49.326;12.690;2022-09-01T12:54:49;2.88;;;1.35;;
16139;SDS011;8175;49.326;12.690;2022-09-01T12:57:39;1.65;;;1.40;;
16139;SDS011;8175;49.326;12.690;2022-09-01T13:02:36;2.42;;;1.40;;
16139;SDS011;8175;49.326;12.690;2022-09-01T13:05:17;1.60;;;1.50;;
16139;SDS011;8175;49.326;12.690;2022-09-01T13:07:45;1.70;;;1.60;;
16139;SDS011;8175;49.326;12.690;2022-09-01T13:10:11;2.28;;;1.85;;
16139;SDS011;8175;49.326;12.690;2022-09-01T13:12:40;1.48;;;1.38;;
16139;SDS011;8175;49.326;12.690;2022-09-01T13:15:07;2.28;;;1.50;;
16139;SDS011;8175;49.326;12.690;2022-09-01T13:17:34;2.30;;;1.50;;
16139;SDS011;8175;49.326;12.690;2022-09-01T13:19:59;1.67;;;1.58;;
16139;SDS011;8175;49.326;12.690;2022-09-01T13:22:25;1.13;;;1.02;;
16139;SDS011;8175;49.326;12.690;2022-09-01T13:24:50;1.85;;;1.67;;
16139;SDS011;8175;49.326;12.690;2022-09-01T13:27:16;2.08;;;1.60;;
16139;SDS011;8175;49.326;12.690;2022-09-01T13:29:42;1.55;;;1.42;;
16139;SDS011;8175;49.326;12.690;2022-09-01T13:32:08;1.48;;;1.20;;
16139;SDS011;8175;49.326;12.690;2022-09-01T13:34:34;2.85;;;1.20;;
16139;SDS011;8175;49.326;12.690;2022-09-01T13:36:59;1.55;;;1.23;;
16139;SDS011;8175;49.326;12.690;2022-09-01T13:39:25;1.23;;;1.08;;
16139;SDS011;8175;49.326;12.690;2022-09-01T13:41:51;1.20;;;1.10;;
16139;SDS011;8175;49.326;12.690;2022-09-01T13:44:16;2.35;;;1.08;;
16139;SDS011;8175;49.326;12.690;2022-09-01T13:46:43;1.27;;;1.17;;
16139;SDS011;8175;49.326;12.690;2022-09-01T13:49:09;1.20;;;1.10;;
16139;SDS011;8175;49.326;12.690;2022-09-01T13:51:34;2.40;;;1.20;;
16139;SDS011;8175;49.326;12.690;2022-09-01T13:54:01;1.85;;;1.27;;
16139;SDS011;8175;49.326;12.690;2022-09-01T13:56:27;1.75;;;1.23;;
16139;SDS011;8175;49.326;12.690;2022-09-01T13:58:53;1.20;;;1.10;;
16139;SDS011;8175;49.326;12.690;2022-09-01T14:01:18;1.08;;;1.00;;
16139;SDS011;8175;49.326;12.690;2022-09-01T14:03:44;1.02;;;0.85;;
16139;SDS011;8175;49.326;12.690;2022-09-01T14:06:10;2.25;;;1.00;;
16139;SDS011;8175;49.326;12.690;2022-09-01T14:08:35;1.10;;;0.93;;
16139;SDS011;8175;49.326;12.690;2022-09-01T14:11:01;1.20;;;1.10;;
16139;SDS011;8175;49.326;12.690;2022-09-01T14:13:27;1.52;;;1.30;;
16139;SDS011;8175;49.326;12.690;2022-09-01T14:15:55;1.13;;;1.02;;
16139;SDS011;8175;49.326;12.690;2022-09-01T14:18:21;1.33;;;1.13;;
16139;SDS011;8175;49.326;12.690;2022-09-01T14:20:48;1.45;;;0.98;;
16139;SDS011;8175;49.326;12.690;2022-09-01T14:23:18;1.70;;;1.00;;
16139;SDS011;8175;49.326;12.690;2022-09-01T14:25:48;1.15;;;1.05;;
16139;SDS011;8175;49.326;12.690;2022-09-01T14:28:15;1.90;;;1.20;;
16139;SDS011;8175;49.326;12.690;2022-09-01T14:30:41;1.75;;;1.10;;
16139;SDS011;8175;49.326;12.690;2022-09-01T14:33:08;2.33;;;1.10;;
16139;SDS011;8175;49.326;12.690;2022-09-01T14:35:36;1.10;;;1.00;;
16139;SDS011;8175;49.326;12.690;2022-09-01T14:38:07;1.70;;;0.90;;
16139;SDS011;8175;49.326;12.690;2022-09-01T14:40:35;1.08;;;1.00;;
16139;SDS011;8175;49.326;12.690;2022-09-01T14:43:03;1.17;;;1.10;;
16139;SDS011;8175;49.326;12.690;2022-09-01T14:45:30;1.10;;;0.90;;
16139;SDS011;8175;49.326;12.690;2022-09-01T14:47:56;1.10;;;1.00;;
16139;SDS011;8175;49.326;12.690;2022-09-01T14:50:24;0.88;;;0.82;;
16139;SDS011;8175;49.326;12.690;2022-09-01T14:52:52;1.42;;;1.00;;
16139;SDS011;8175;49.326;12.690;2022-09-01T14:55:23;1.20;;;1.10;;
16139;SDS011;8175;49.326;12.690;2022-09-01T14:57:50;1.67;;;0.80;;
16139;SDS011;8175;49.326;12.690;2022-09-01T15:00:16;0.95;;;0.85;;
16139;SDS011;8175;49.326;12.690;2022-09-01T15:02:43;0.80;;;0.80;;
16139;SDS011;8175;49.326;12.690;2022-09-01T15:05:10;1.25;;;0.90;;
16139;SDS011;8175;49.326;12.690;2022-09-01T15:07:36;1.00;;;0.90;;
16139;SDS011;8175;49.326;12.690;2022-09-01T15:10:03;0.80;;;0.80;;
16139;SDS011;8175;49.326;12.690;2022-09-01T15:12:30;2.00;;;1.10;;
16139;SDS011;8175;49.326;12.690;2022-09-01T15:14:56;2.80;;;0.95;;
16139;SDS011;8175;49.326;12.690;2022-09-01T15:17:23;0.80;;;0.80;;
16139;SDS011;8175;49.326;12.690;2022-09-01T15:19:49;1.27;;;1.00;;
16139;SDS011;8175;49.326;12.690;2022-09-01T15:22:16;2.00;;;1.23;;
16139;SDS011;8175;49.326;12.690;2022-09-01T15:24:42;0.80;;;0.80;;
16139;SDS011;8175;49.326;12.690;2022-09-01T15:27:07;0.90;;;0.90;;
16139;SDS011;8175;49.326;12.690;2022-09-01T15:29:35;2.50;;;1.20;;
16139;SDS011;8175;49.326;12.690;2022-09-01T15:32:10;2.00;;;0.82;;
16139;SDS011;8175;49.326;12.690;2022-09-01T15:34:36;1.45;;;0.80;;
16139;SDS011;8175;49.326;12.690;2022-09-01T15:37:02;1.38;;;1.02;;
16139;SDS011;8175;49.326;12.690;2022-09-01T15:39:29;1.00;;;0.90;;
16139;SDS011;8175;49.326;12.690;2022-09-01T15:41:54;3.88;;;2.33;;
16139;SDS011;8175;49.326;12.690;2022-09-01T15:44:21;1.00;;;0.80;;
16139;SDS011;8175;49.326;12.690;2022-09-01T15:46:46;1.40;;;1.20;;
16139;SDS011;8175;49.326;12.690;2022-09-01T15:49:12;4.70;;;1.63;;